Historyczne dane pomiarowe

Dodano dane terminowe – wersja testowa.

Dane z okresu 1951-2019

Wersja bazy: 1.34 [2019-03-16, lista zmian], aktualizacja planowana na 2019-04-15

Dane meteo z obszaru Polski uzyskane na podstawie danych udostępnionych przez Instytut Meteorologii i Gospodarki Wodnej – Państwowy Instytut Badawczy.

 

Wybierz Datę:    

       

TemperaturaWilgotnośćWiatrCiśnienieOpadyŚniegCzas trwania zjawisk
 Stacja t tx tn tng RH VA  wxwx mslp ppp RRR   cm mm wxwxwxwxwxwxwx
1994-08-14 9.9 14.6 6.8- 80.3- 3.7 4.3---- 0.0------------
1994-08-13 12.6 16.2 10.2- 92.3- 4.7 6.3---- 8.3------------
1994-08-12 12.5 16.1 10.1- 98.0- 7.7 6.3---- 17.2------------
1994-08-11 16.7 21.5 14.9- 94.8- 7.7 4.7---- 8.2------------
1994-08-10 16.2 23.1 11.3- 88.3- 1.0 3.0---- 0.0------------
1994-08-09 15.5 19.0 12.8- 95.8- 8.0 4.7---- 4.6------------
1994-08-08 19.0 24.3 16.7- 85.0- 7.3 4.3---- 0.2------------
1994-08-07 19.8 26.1 14.9- 87.3- 6.7 4.0---- 13.2------------
1994-08-06 22.1 27.4 18.2- 71.5- 2.7 3.0---- 0.0------------
1994-08-05 20.8 25.5 16.3- 80.0- 1.3 2.3---- 0.0------------
1994-08-04 19.1 24.0 14.7- 86.3- 3.3 1.7---- 0.0------------
1994-08-03 20.2 25.5 16.4- 73.3- 4.7 3.7---- 2.2------------
1994-08-02 23.7 28.4 20.2- 53.8- 2.3 4.0---- 0.0------------
1994-08-01 23.1 28.4 20.9- 63.8- 3.0 4.0---- 0.0------------
1994-07-31 23.8 28.5 20.5- 52.5- 0.3 3.0---- 0.0------------
1994-07-30 23.8 28.4 21.1- 49.0- 0.0 1.3---- 0.0------------
1994-07-29 23.0 27.4 20.3- 53.0- 0.0 1.0---- 0.0------------
1994-07-28 23.4 27.2 19.8- 49.0- 1.3 2.3---- 0.0------------
1994-07-27 22.8 27.2 18.9- 48.5- 1.7 2.3---- 0.0------------
1994-07-26 22.0 26.4 19.1- 50.3- 1.0 2.0---- 0.0------------
1994-07-25 20.6 26.4 17.2- 52.3- 3.3 1.7---- 0.0------------
1994-07-24 19.6 24.9 16.9- 51.3- 2.3 2.7---- 0.0------------
1994-07-23 18.4 22.7 15.2- 55.3- 0.0 2.3---- 0.0------------
1994-07-22 18.0 22.0 14.2- 55.3- 0.0 3.3---- 0.0------------
1994-07-21 16.0 20.0 11.0- 69.5- 0.0 3.3---- 0.0------------
1994-07-20 13.9 17.7 10.0- 75.8- 2.0 3.0---- 0.0------------
1994-07-19 15.9 20.0 13.1- 90.0- 3.7 5.3---- 0.0------------
1994-07-18 17.1 21.7 13.4- 95.0- 4.0 4.3---- 0.0------------
1994-07-17 18.7 22.5 15.5- 91.3- 4.3 2.0---- 1.7------------
1994-07-16 18.3 22.7 15.8- 84.8- 4.3 3.3---- 11.0------------
1994-07-15 18.2 21.8 14.1- 89.3- 0.7 1.3---- 0.0------------
1994-07-14 17.9 22.6 13.8- 82.3- 5.7 5.3---- 0.0------------
1994-07-13 18.1 21.6 13.8- 78.3- 1.7 3.3---- 0.0------------
1994-07-12 14.9 18.9 11.3- 93.5- 5.3 3.0---- 0.0------------
1994-07-11 13.0 18.2 9.4- 97.5- 5.0 3.7---- 0.3------------
1994-07-10 10.1 12.4 7.8- 98.5- 4.7 6.0---- 4.8------------
1994-07-09 10.7 13.4 8.8- 97.8- 8.0 4.7---- 35.1------------
1994-07-08 11.3 13.1 9.4- 97.0- 6.0 4.3---- 0.5------------
1994-07-07 15.4 19.5 12.2- 72.5- 7.7 2.7---- 5.6------------
1994-07-06 15.1 20.0 11.2- 71.0- 2.0 2.7---- 0.0------------
1994-07-05 17.8 21.6 15.7- 59.3- 5.3 3.0---- 0.8------------
1994-07-04 18.8 23.5 14.7- 52.0- 0.3 2.0---- 0.0------------
1994-07-03 16.7 22.0 12.5- 58.0- 0.0 1.7---- 0.0------------
1994-07-02 15.0 19.9 10.7- 73.0- 0.0 1.7---- 0.0------------
1994-07-01 14.2 18.4 10.7- 84.8- 0.7 3.7---- 0.0------------
1994-06-30 18.8 22.5 15.3- 88.3- 5.3 4.3---- 2.2------------
1994-06-29 21.8 25.9 18.2- 73.0- 3.0 2.3---- 0.0------------
1994-06-28 21.7 25.5 19.6- 77.8- 5.0 3.0---- 0.0------------
1994-06-27 21.5 26.4 17.7- 78.8- 5.3 2.7---- 0.0------------
1994-06-26 18.9 25.3 12.3- 68.0- 1.0 5.0---- 0.0------------
1994-06-25 13.0 19.1 6.3- 59.0- 0.0 1.3---- 0.0------------
1994-06-24 10.9 14.6 5.3- 63.8- 1.7 3.3---- 0.0------------
1994-06-23 12.9 18.4 9.5- 74.0- 5.7 7.0---- 0.0------------
1994-06-22 15.3 21.9 10.1- 65.5- 1.7 5.0---- 0.3------------
1994-06-21 12.1 16.0 6.9- 75.3- 0.3 2.7---- 0.0------------
1994-06-20 13.4 19.0 11.8- 76.0- 6.3 5.0---- 0.0------------
1994-06-19 13.8 20.2 7.7- 70.8- 5.3 6.0---- 0.0------------
1994-06-18 7.8 13.3 2.9- 82.0- 5.3 6.7---- 10.0------------
1994-06-17 6.3 9.4 3.8- 94.0- 7.0 5.3---- 0.2------------
1994-06-16 8.8 11.4 5.8- 83.8- 5.7 4.0---- 2.6------------
1733.7 ms

 

Źródłem pochodzenia danych jest Instytut Meteorologii i Gospodarki Wodnej – Państwowy Instytut Badawczy. Dane Instytutu Meteorologii i Gospodarki Wodnej – Państwowego Instytutu Badawczego zostały przetworzone.

Dane źródłowe można odnaleźć na stronie https://dane.imgw.pl